Budapest Ferihegy, Hungary

7:49 PM CEST on July 27, 2016 (GMT +0200)
Budapest | | Change Station

Elev 417 ft 47.42 °N, 19.21 °E | Updated 8 minutes ago

Scattered Clouds
Scattered Clouds
81.9 °F
Feels Like 84 °F
N
0.0
Wind Variable Wind from SE
Gusts 0.0 mph

Today
High -- | Low -- °F
--% Chance of Precip.
Yesterday
High -- | Low -- °F
Precip. -- in
Pressure 29.95 in
Visibility 6.2 miles
Clouds Few 4500 ft
Scattered Clouds 11000 ft
Heat Index 84 °F
Dew Point 65 °F
Humidity 56%
Rainfall 0.00 in
Snow Depth Not available.
5:15 AM 8:23 PM
Last Quarter, 41% visible
METAR LHBP 271730Z VRB03KT 9999 FEW045TCU SCT110 25/19 Q1014 NOSIG
Pressure 29.95 in
Visibility 6.2 miles
Clouds Few 4500 ft
Scattered Clouds 11000 ft
Heat Index 84 °F
Dew Point 65 °F
Humidity 56%
Rainfall 0.00 in
Snow Depth Not available.
5:15 AM 8:23 PM
Last Quarter, 41% visible
METAR LHBP 271730Z VRB03KT 9999 FEW045TCU SCT110 25/19 Q1014 NOSIG

10-Day Weather Forecast

×

Almanac

Astronomy

Jul. 27, 2016 Rise Set
Actual Time
Civil Twilight
Nautical Twilight
Astronomical Twilight
Moon
Length of Visible Light
Length of Day
Tomorrow will be .
, % of the Moon is Illuminated

Today's Extremes

Country Highs Country Lows

Community

WunderPhotos

Upload Photos

1,927,889 photos uploaded!

WunderBlog® & News

Nearby

Air Quality

  Air Quality AQ Index Pollutant
Not available.

Snow Depth

Station Depth Elevation

Earthquake Activity

City Distance Mag. Time & Date
Minimum magnitude displayed is 2.5.

Coastal Water Temperatures

Place Temperature

Stations

Nearby Weather Stations

Station Location Temp. Windchill Dew Point Humidity Wind Precip. Elev Updated Type